Terminal Aerodrome Forecast
Issued by NWS

Home | Current Version | Previous Version | Text Only | Print | Product List | Glossary On
Versions: 1 2 3 4 5 6 7 8 9 10 11 12 13 14 15 16 17 18 19 20 21 22 23 24 25 26 27 28 29 30 31 32 33 34 35 36
000
FTUS45 KPSR 031134
TAFSDL
TAF
KSDL 031134Z 0312/0412 VRB03KT P6SM VCTS FEW100CB SCT250
      TEMPO 0312/0313 -TSRA BKN100CB
     FM031800 24005KT P6SM FEW120 SCT250
     FM040300 VRB03KT P6SM FEW120 SCT250=

USA.gov is the U.S. government's official web portal to all federal, state and local government web resources and services.